createdAt,value
2018-02-06T00:00:28.642Z,52.80
2018-02-06T00:02:56.306Z,49.70
2018-02-06T00:05:23.917Z,52.00
2018-02-06T00:07:51.439Z,53.93
2018-02-06T00:10:18.962Z,57.20
2018-02-06T00:12:46.511Z,43.27
2018-02-06T00:15:14.078Z,51.23
2018-02-06T00:17:41.670Z,59.77
2018-02-06T00:20:09.232Z,51.20
2018-02-06T00:22:51.142Z,37.80
2018-02-06T00:25:18.691Z,64.30
2018-02-06T00:27:46.250Z,60.77
2018-02-06T00:30:13.941Z,72.40
2018-02-06T00:32:41.508Z,65.43
2018-02-06T00:35:09.055Z,72.73
2018-02-06T00:37:36.627Z,78.93
2018-02-06T00:40:04.175Z,57.73
2018-02-06T00:42:31.740Z,56.60
2018-02-06T00:44:59.263Z,58.83
2018-02-06T00:47:26.887Z,63.70
2018-02-06T00:49:54.416Z,64.00
2018-02-06T00:52:21.945Z,69.53
2018-02-06T00:54:49.510Z,55.33
2018-02-06T00:57:17.028Z,61.67
2018-02-06T00:59:44.603Z,36.47
2018-02-06T01:02:12.133Z,45.53
2018-02-06T01:04:39.703Z,70.37
2018-02-06T01:07:07.210Z,47.03
2018-02-06T01:09:34.807Z,62.63
2018-02-06T01:12:02.341Z,67.30
2018-02-06T01:14:29.864Z,31.67
2018-02-06T01:16:57.428Z,69.10
2018-02-06T01:19:24.961Z,50.10
2018-02-06T01:21:52.540Z,66.07
2018-02-06T01:24:20.084Z,39.33
2018-02-06T01:26:47.696Z,58.80
2018-02-06T01:29:15.386Z,45.20
2018-02-06T01:31:42.954Z,69.90
2018-02-06T01:34:10.504Z,27.13
2018-02-06T01:36:38.103Z,59.67
2018-02-06T01:39:05.657Z,49.77
2018-02-06T01:41:33.209Z,71.33
2018-02-06T01:44:00.789Z,30.83
2018-02-06T01:46:28.345Z,71.80
2018-02-06T01:48:56.137Z,49.07
2018-02-06T01:51:23.733Z,46.60
2018-02-06T01:53:51.412Z,59.23
2018-02-06T01:56:19.031Z,31.83
2018-02-06T01:58:46.584Z,63.23
2018-02-06T02:01:14.125Z,66.50
2018-02-06T02:03:41.695Z,58.33
2018-02-06T02:06:09.256Z,56.73
2018-02-06T02:08:36.784Z,50.53
2018-02-06T02:11:04.353Z,61.67
2018-02-06T02:13:31.885Z,62.57
2018-02-06T02:15:59.403Z,46.00
2018-02-06T02:18:26.952Z,58.53
2018-02-06T02:20:54.514Z,44.23
2018-02-06T02:23:22.088Z,48.10
2018-02-06T02:25:49.640Z,47.07
2018-02-06T02:28:17.219Z,54.70
2018-02-06T02:30:44.782Z,60.00
2018-02-06T02:33:12.379Z,68.77
2018-02-06T02:35:39.922Z,76.73
2018-02-06T02:38:07.500Z,67.33
2018-02-06T02:40:35.070Z,60.73
2018-02-06T04:38:36.932Z,59.33
2018-02-06T04:41:04.535Z,66.33
2018-02-06T04:43:32.097Z,68.07
2018-02-06T04:45:59.694Z,47.83
2018-02-06T04:48:27.335Z,65.97
2018-02-06T04:50:54.859Z,49.03
2018-02-06T04:53:22.391Z,57.67
2018-02-06T04:55:49.991Z,55.00
2018-02-06T04:58:17.520Z,53.10
2018-02-06T05:00:45.038Z,53.33
2018-02-06T05:03:12.588Z,38.63
2018-02-06T05:05:40.174Z,74.07
2018-02-06T05:08:07.837Z,54.53
2018-02-06T05:10:35.411Z,67.93
2018-02-06T05:13:02.935Z,46.73
2018-02-06T05:15:30.508Z,38.97
2018-02-06T05:17:58.079Z,72.43
2018-02-06T05:20:25.613Z,47.80
2018-02-06T05:22:53.191Z,48.93
2018-02-06T05:25:20.724Z,55.20
2018-02-06T05:27:48.252Z,75.50
2018-02-06T05:30:16.371Z,52.77
2018-02-06T05:32:43.935Z,69.70
2018-02-06T05:35:11.476Z,62.27
2018-02-06T05:37:39.062Z,75.53
2018-02-06T05:40:06.640Z,59.80
2018-02-06T05:42:34.238Z,56.43
2018-02-06T05:45:01.801Z,82.27
2018-02-06T05:47:29.352Z,39.43
2018-02-06T05:49:56.951Z,59.07
2018-02-06T05:52:24.487Z,68.93
2018-02-06T05:54:52.057Z,67.63
2018-02-06T05:57:19.622Z,72.70
2018-02-06T05:59:47.194Z,74.77
2018-02-06T06:02:14.846Z,55.40
2018-02-06T06:04:42.451Z,45.40
2018-02-06T06:07:10.011Z,59.33
2018-02-06T06:09:37.640Z,61.70
2018-02-06T06:12:05.209Z,74.03
2018-02-06T06:14:32.769Z,60.97
2018-02-06T06:17:00.368Z,78.53
2018-02-06T06:19:27.939Z,70.27
2018-02-06T06:21:55.486Z,54.63
2018-02-06T06:24:23.024Z,51.93
2018-02-06T06:26:50.579Z,70.17
2018-02-06T06:29:18.124Z,70.13
2018-02-06T06:31:45.709Z,52.23
2018-02-06T06:34:13.247Z,73.10
2018-02-06T06:36:40.872Z,64.97
2018-02-06T06:39:08.454Z,76.00
2018-02-06T06:41:36.123Z,49.93
2018-02-06T06:44:04.596Z,61.40
2018-02-06T06:46:32.132Z,60.57
2018-02-06T06:48:59.759Z,28.27
2018-02-06T06:51:27.316Z,69.87
2018-02-06T06:53:54.912Z,51.93
2018-02-06T06:56:22.478Z,51.97
2018-02-06T06:58:50.883Z,46.97
2018-02-06T07:01:18.468Z,49.87
2018-02-06T07:03:46.045Z,82.23
2018-02-06T07:06:13.594Z,48.50
2018-02-06T07:08:41.127Z,45.43
2018-02-06T07:11:08.714Z,67.97
2018-02-06T07:13:36.240Z,60.57
2018-02-06T07:16:03.783Z,70.80
2018-02-06T07:18:31.395Z,67.80
2018-02-06T07:20:59.239Z,51.77
2018-02-06T07:23:26.796Z,36.77
2018-02-06T07:25:54.416Z,55.17
2018-02-06T07:28:21.991Z,46.40
2018-02-06T07:30:49.569Z,49.50
2018-02-06T07:33:17.180Z,28.87
2018-02-06T07:35:44.746Z,60.13
2018-02-06T07:38:12.289Z,42.43
2018-02-06T07:40:39.869Z,59.13
2018-02-06T07:43:07.424Z,74.40
2018-02-06T07:45:35.045Z,51.23
2018-02-06T07:48:02.850Z,60.57
2018-02-06T07:50:30.409Z,54.07
2018-02-06T07:52:58.197Z,61.90
2018-02-06T07:55:25.747Z,43.07
2018-02-06T07:57:53.355Z,73.80
2018-02-06T08:00:21.118Z,67.53
2018-02-06T08:02:48.674Z,64.17
2018-02-06T08:05:16.219Z,56.57
2018-02-06T08:07:43.846Z,35.33
2018-02-06T08:10:11.408Z,43.60
2018-02-06T08:12:38.928Z,60.33
2018-02-06T08:15:06.526Z,41.57
2018-02-06T08:17:34.081Z,51.87
2018-02-06T08:20:01.611Z,58.03
2018-02-06T08:22:29.185Z,33.90
2018-02-06T08:24:56.769Z,58.40
2018-02-06T08:27:24.351Z,65.60
2018-02-06T08:29:51.895Z,59.60
2018-02-06T08:32:19.424Z,54.53
2018-02-06T08:34:47.002Z,54.93
2018-02-06T08:37:14.548Z,59.37
2018-02-06T08:39:42.100Z,67.13
2018-02-06T08:42:09.657Z,50.80
2018-02-06T08:44:37.213Z,54.90
2018-02-06T08:47:04.766Z,55.33
2018-02-06T08:49:32.338Z,20.13
2018-02-06T08:51:59.896Z,29.40
2018-02-06T08:54:27.416Z,61.30
2018-02-06T08:56:55.867Z,59.63
2018-02-06T08:59:23.418Z,54.03
2018-02-06T09:01:51.144Z,46.73
2018-02-06T09:04:18.744Z,30.13
2018-02-06T09:06:46.291Z,44.27
2018-02-06T09:09:13.839Z,56.03
2018-02-06T09:11:41.554Z,36.97
2018-02-06T09:14:09.087Z,45.67
2018-02-06T09:16:36.622Z,46.00
2018-02-06T09:19:04.225Z,33.47
2018-02-06T09:21:31.780Z,44.07
2018-02-06T09:23:59.719Z,38.43
2018-02-06T09:26:27.305Z,28.20
2018-02-06T09:28:54.879Z,36.57
2018-02-06T09:31:22.514Z,48.40
2018-02-06T09:33:50.081Z,43.03
2018-02-06T09:36:17.658Z,26.07
2018-02-06T09:38:45.228Z,26.87
2018-02-06T09:41:12.808Z,36.87
2018-02-06T09:43:40.353Z,41.50
2018-02-06T09:46:07.880Z,31.30
2018-02-06T09:48:35.419Z,32.60
2018-02-06T09:51:02.951Z,39.73
2018-02-06T09:53:30.528Z,40.40
2018-02-06T09:55:58.186Z,33.07
2018-02-06T09:58:26.208Z,30.63
2018-02-06T10:00:53.742Z,12.73
2018-02-06T10:03:21.335Z,20.57
2018-02-06T10:05:48.890Z,27.93
2018-02-06T10:08:16.435Z,20.87
2018-02-06T10:10:44.094Z,17.80
2018-02-06T10:13:11.621Z,24.07
2018-02-06T10:15:39.157Z,31.20
2018-02-06T10:18:06.741Z,18.13
2018-02-06T10:20:34.295Z,18.57
2018-02-06T10:23:01.995Z,13.03
2018-02-06T10:25:29.986Z,19.43
2018-02-06T10:27:57.584Z,13.50
2018-02-06T10:30:25.178Z,19.37
2018-02-06T10:32:52.765Z,19.70
2018-02-06T10:35:20.322Z,18.27
2018-02-06T10:37:47.830Z,16.30
2018-02-06T10:40:15.354Z,21.90
2018-02-06T10:42:42.911Z,13.07
2018-02-06T10:45:10.522Z,19.07
2018-02-06T10:47:38.455Z,22.93
2018-02-06T10:50:05.996Z,12.37
2018-02-06T10:52:33.545Z,21.07
2018-02-06T10:55:03.925Z,17.00
2018-02-06T10:57:31.476Z,16.53
2018-02-06T10:59:58.997Z,14.67
2018-02-06T11:02:26.583Z,18.77
2018-02-06T11:04:54.119Z,12.13
2018-02-06T11:07:21.695Z,15.23
2018-02-06T11:09:49.211Z,8.83
2018-02-06T11:12:16.757Z,8.60
2018-02-06T11:14:44.623Z,13.63
2018-02-06T11:17:12.140Z,3.33
2018-02-06T11:19:39.660Z,16.30
2018-02-06T11:22:07.247Z,15.23
2018-02-06T11:24:34.824Z,22.23
2018-02-06T11:27:02.935Z,7.07
2018-02-06T11:29:30.470Z,12.10
2018-02-06T11:31:58.019Z,20.17
2018-02-06T11:34:25.931Z,16.63
2018-02-06T11:36:53.477Z,12.30
2018-02-06T11:39:21.029Z,15.67
2018-02-06T11:41:48.805Z,12.00
2018-02-06T11:44:16.358Z,7.20
2018-02-06T11:46:43.890Z,11.47
2018-02-06T11:49:11.486Z,12.20
2018-02-06T11:51:39.065Z,11.53
2018-02-06T11:54:06.619Z,10.00
2018-02-06T11:56:34.184Z,10.47
2018-02-06T11:59:01.792Z,15.63
2018-02-06T12:01:29.332Z,9.33
2018-02-06T12:03:56.861Z,9.00
2018-02-06T12:06:25.586Z,13.97
2018-02-06T12:08:53.116Z,10.17
2018-02-06T12:11:20.620Z,7.33
2018-02-06T12:13:48.180Z,9.63
2018-02-06T12:16:15.724Z,14.20
2018-02-06T12:18:43.268Z,10.73
2018-02-06T12:21:11.560Z,9.57
2018-02-06T12:23:39.119Z,13.47
2018-02-06T12:26:06.638Z,7.80
2018-02-06T12:28:34.478Z,9.43
2018-02-06T12:31:02.000Z,11.97
2018-02-06T12:33:29.566Z,18.67
2018-02-06T12:35:57.121Z,12.00
2018-02-06T12:38:24.676Z,15.57
2018-02-06T12:40:52.217Z,5.03
2018-02-06T12:43:20.129Z,13.80
2018-02-06T12:45:47.667Z,8.77
2018-02-06T12:48:15.183Z,12.10
2018-02-06T12:50:42.741Z,6.40
2018-02-06T12:53:10.280Z,7.90
2018-02-06T12:55:37.881Z,8.53
2018-02-06T12:58:05.421Z,18.70
2018-02-06T13:00:33.033Z,17.73
2018-02-06T13:03:00.567Z,13.70
2018-02-06T13:05:28.278Z,24.30
2018-02-06T13:07:55.950Z,9.90
2018-02-06T13:10:23.500Z,20.30
2018-02-06T13:12:51.107Z,16.67
2018-02-06T13:15:18.620Z,10.23
2018-02-06T13:17:46.239Z,22.07
2018-02-06T13:20:13.885Z,14.10
2018-02-06T13:22:41.600Z,14.60
2018-02-06T13:25:09.148Z,22.03
2018-02-06T13:27:36.699Z,19.63
2018-02-06T13:30:04.406Z,12.90
2018-02-06T13:32:31.960Z,14.53
2018-02-06T13:34:59.559Z,10.77
2018-02-06T13:37:27.109Z,20.93
2018-02-06T13:39:54.698Z,13.40
2018-02-06T13:42:22.267Z,10.67
2018-02-06T13:44:49.817Z,17.17
2018-02-06T13:47:17.361Z,10.47
2018-02-06T13:49:44.908Z,10.03
2018-02-06T13:52:12.436Z,17.90
2018-02-06T13:54:40.472Z,19.27
2018-02-06T13:57:08.030Z,15.93
2018-02-06T13:59:35.553Z,18.90
2018-02-06T14:02:03.107Z,13.70
2018-02-06T14:04:30.698Z,11.47
2018-02-06T14:06:58.222Z,10.80
2018-02-06T14:09:25.812Z,18.10
2018-02-06T14:11:53.387Z,8.73
2018-02-06T14:14:20.952Z,18.37
2018-02-06T14:16:48.833Z,15.50
2018-02-06T14:19:16.364Z,18.97
2018-02-06T14:21:43.943Z,18.53
2018-02-06T14:24:11.529Z,30.73
2018-02-06T14:26:39.044Z,22.80
2018-02-06T14:29:06.597Z,22.63
2018-02-06T14:31:34.147Z,21.30
2018-02-06T14:34:02.451Z,10.80
2018-02-06T14:36:30.125Z,19.57
2018-02-06T14:38:58.523Z,19.33
2018-02-06T14:41:26.124Z,30.10
2018-02-06T14:43:53.669Z,20.00
2018-02-06T14:46:21.268Z,7.87
2018-02-06T14:48:48.822Z,15.27
2018-02-06T14:51:16.383Z,17.70
2018-02-06T14:53:43.892Z,20.47
2018-02-06T14:56:11.497Z,13.30
2018-02-06T14:58:39.048Z,18.80
2018-02-06T15:01:06.559Z,18.50
2018-02-06T15:03:34.494Z,14.37
2018-02-06T15:06:02.044Z,18.87
2018-02-06T15:08:30.640Z,17.60
2018-02-06T15:10:58.237Z,34.40
2018-02-06T15:13:25.764Z,22.63
2018-02-06T15:15:55.776Z,16.10
2018-02-06T15:18:23.535Z,17.63
2018-02-06T15:20:51.080Z,10.90
2018-02-06T15:23:18.619Z,14.50
2018-02-06T15:25:46.218Z,9.80
2018-02-06T15:28:13.769Z,17.10
2018-02-06T15:30:41.334Z,15.90
2018-02-06T15:33:08.899Z,17.60
2018-02-06T15:35:36.805Z,15.30
2018-02-06T15:38:04.327Z,15.77
2018-02-06T15:40:31.929Z,16.73
2018-02-06T15:42:59.487Z,14.00
2018-02-06T15:45:27.086Z,16.90
2018-02-06T15:47:54.599Z,12.30
2018-02-06T15:50:22.176Z,23.17
2018-02-06T15:52:49.796Z,23.70
2018-02-06T15:55:18.107Z,14.43
2018-02-06T15:57:45.676Z,10.63
2018-02-06T16:00:13.255Z,23.63
2018-02-06T16:02:40.820Z,20.83
2018-02-06T16:05:08.450Z,19.57
2018-02-06T16:07:35.970Z,18.10
2018-02-06T16:10:03.560Z,19.20
2018-02-06T16:12:31.124Z,26.77
2018-02-06T16:14:58.664Z,26.87
2018-02-06T16:17:26.589Z,22.77
2018-02-06T16:19:54.144Z,16.27
2018-02-06T16:22:21.662Z,23.10
2018-02-06T16:24:49.210Z,20.73
2018-02-06T16:27:16.728Z,25.80
2018-02-06T16:29:44.270Z,27.53
2018-02-06T16:32:11.822Z,23.90
2018-02-06T16:34:39.372Z,25.77
2018-02-06T16:37:06.945Z,17.37
2018-02-06T16:39:34.547Z,22.63
2018-02-06T16:42:02.668Z,13.20
2018-02-06T16:44:30.187Z,21.53
2018-02-06T16:46:58.153Z,15.30
2018-02-06T16:49:25.695Z,32.73
2018-02-06T16:51:53.215Z,86.83
2018-02-06T16:54:21.206Z,28.10
2018-02-06T16:56:48.748Z,16.17
2018-02-06T16:59:17.336Z,19.30
2018-02-06T17:01:44.916Z,18.47
2018-02-06T17:04:12.441Z,25.00
2018-02-06T17:06:40.395Z,25.20
2018-02-06T17:09:07.952Z,14.00
2018-02-06T17:11:35.479Z,21.13
2018-02-06T17:14:03.051Z,17.60
2018-02-06T17:16:30.763Z,24.00
2018-02-06T17:18:58.324Z,13.50
2018-02-06T17:21:25.845Z,9.43
2018-02-06T17:23:53.420Z,15.50
2018-02-06T17:26:20.973Z,21.93
2018-02-06T17:28:48.571Z,20.93
2018-02-06T17:31:16.138Z,28.13
2018-02-06T17:33:44.087Z,23.17
2018-02-06T17:36:12.266Z,19.33
2018-02-06T17:38:39.816Z,28.73
2018-02-06T17:41:07.432Z,19.20
2018-02-06T17:43:35.008Z,18.83
2018-02-06T17:46:03.066Z,22.50
2018-02-06T17:48:30.617Z,20.47
2018-02-06T17:50:58.141Z,13.37
2018-02-06T17:53:25.750Z,18.87
2018-02-06T17:55:53.304Z,25.73
2018-02-06T17:58:20.887Z,30.30
2018-02-06T18:00:48.496Z,26.27
2018-02-06T18:03:16.106Z,25.50
2018-02-06T18:05:43.641Z,24.10
2018-02-06T18:08:11.437Z,20.27
2018-02-06T18:10:39.004Z,23.07
2018-02-06T18:13:06.577Z,19.40
2018-02-06T18:15:34.100Z,18.77
2018-02-06T18:18:01.675Z,16.57
2018-02-06T18:20:29.196Z,30.47
2018-02-06T18:22:56.727Z,20.80
2018-02-06T18:25:24.335Z,27.83
2018-02-06T18:27:51.919Z,25.60
2018-02-06T18:30:19.523Z,22.30
2018-02-06T18:32:47.084Z,18.57
2018-02-06T18:35:14.707Z,16.60
2018-02-06T18:37:42.267Z,22.17
2018-02-06T18:40:09.808Z,24.40
2018-02-06T18:42:37.370Z,17.73
2018-02-06T18:45:04.988Z,19.97
2018-02-06T18:47:32.578Z,19.77
2018-02-06T18:50:01.291Z,16.57
2018-02-06T18:52:29.083Z,21.20
2018-02-06T18:54:56.747Z,22.83
2018-02-06T18:57:24.302Z,20.43
2018-02-06T18:59:51.898Z,17.53
2018-02-06T19:02:19.466Z,27.77
2018-02-06T19:04:46.985Z,20.13
2018-02-06T19:07:14.538Z,21.33
2018-02-06T19:09:42.249Z,24.33
2018-02-06T19:12:09.809Z,22.17
2018-02-06T19:14:37.529Z,16.57
2018-02-06T19:17:05.098Z,26.33
2018-02-06T19:19:32.648Z,18.93
2018-02-06T19:22:00.182Z,19.00
2018-02-06T19:24:27.779Z,17.90
2018-02-06T19:26:55.307Z,25.33
2018-02-06T19:29:22.880Z,9.30
2018-02-06T19:31:50.492Z,16.33
2018-02-06T19:34:18.053Z,24.00
2018-02-06T19:36:45.806Z,22.50
2018-02-06T19:39:13.439Z,18.70
2018-02-06T19:41:40.952Z,15.40
2018-02-06T19:44:08.514Z,10.77
2018-02-06T19:46:36.059Z,20.50
2018-02-06T19:49:03.587Z,15.17
2018-02-06T19:51:31.148Z,20.20
2018-02-06T19:53:58.707Z,14.87
2018-02-06T19:56:26.286Z,24.57
2018-02-06T19:58:54.578Z,17.40
2018-02-06T20:01:22.163Z,21.17
2018-02-06T20:03:49.704Z,14.93
2018-02-06T20:06:17.293Z,19.73
2018-02-06T20:08:44.873Z,11.07
2018-02-06T20:11:12.417Z,19.53
2018-02-06T20:13:39.964Z,19.27
2018-02-06T20:16:07.922Z,16.67
2018-02-06T20:18:35.465Z,14.80
2018-02-06T20:21:03.249Z,20.43
2018-02-06T20:23:30.858Z,26.03
2018-02-06T20:25:58.504Z,20.83
2018-02-06T20:28:26.121Z,23.70
2018-02-06T20:30:53.725Z,18.43
2018-02-06T20:33:21.290Z,22.57
2018-02-06T20:35:48.856Z,14.50
2018-02-06T20:38:16.376Z,17.00
2018-02-06T20:40:43.945Z,18.50
2018-02-06T20:43:11.491Z,22.67
2018-02-06T20:45:39.042Z,9.67
2018-02-06T20:48:06.660Z,12.10
2018-02-06T20:50:34.220Z,19.63
2018-02-06T20:53:01.754Z,21.33
2018-02-06T20:55:29.355Z,16.47
2018-02-06T20:57:56.913Z,20.73
2018-02-06T21:00:24.462Z,21.90
2018-02-06T21:02:52.077Z,21.03
2018-02-06T21:05:19.762Z,25.83
2018-02-06T21:07:47.339Z,30.33
2018-02-06T21:10:14.860Z,12.70
2018-02-06T21:12:42.482Z,16.67
2018-02-06T21:15:10.395Z,30.73
2018-02-06T21:17:37.940Z,26.10
2018-02-06T21:20:05.528Z,14.40
2018-02-06T21:22:34.100Z,19.23
2018-02-06T21:25:01.792Z,23.10
2018-02-06T21:27:29.324Z,8.97
2018-02-06T21:29:56.909Z,23.73
2018-02-06T21:32:24.446Z,21.30
2018-02-06T21:34:52.068Z,23.07
2018-02-06T21:37:19.607Z,15.53
2018-02-06T21:39:47.141Z,19.87
2018-02-06T21:42:15.110Z,11.27
2018-02-06T21:44:42.778Z,30.27
2018-02-06T21:47:10.291Z,6.90
2018-02-06T21:49:37.860Z,22.23
2018-02-06T21:52:05.432Z,27.37
2018-02-06T21:54:32.968Z,16.37
2018-02-06T21:57:00.510Z,25.77
2018-02-06T21:59:28.112Z,34.63
2018-02-06T22:01:55.649Z,23.63
2018-02-06T22:04:23.248Z,19.10
2018-02-06T22:06:50.938Z,15.77
2018-02-06T22:09:18.595Z,27.53
2018-02-06T22:11:46.208Z,20.43
2018-02-06T22:14:13.759Z,18.97
2018-02-06T22:16:41.280Z,24.33
2018-02-06T22:19:08.834Z,10.33
2018-02-06T22:21:36.409Z,33.30
2018-02-06T22:24:04.670Z,29.77
2018-02-06T22:26:32.216Z,14.80
2018-02-06T22:28:59.774Z,25.17
2018-02-06T22:31:27.386Z,17.53
2018-02-06T22:33:54.908Z,28.80
2018-02-06T22:36:22.476Z,19.63
2018-02-06T22:38:50.034Z,14.90
2018-02-06T22:41:17.608Z,20.83
2018-02-06T22:43:45.251Z,24.27
2018-02-06T22:46:12.905Z,34.23
2018-02-06T22:48:40.446Z,23.67
2018-02-06T22:51:08.021Z,25.00
2018-02-06T22:53:35.644Z,25.07
2018-02-06T22:56:03.218Z,13.43
2018-02-06T22:58:30.767Z,31.53
2018-02-06T23:00:58.365Z,27.83
2018-02-06T23:03:25.925Z,26.13
2018-02-06T23:05:53.530Z,26.93
2018-02-06T23:08:21.190Z,17.50
2018-02-06T23:10:48.431Z,29.10
2018-02-06T23:13:15.985Z,23.63
2018-02-06T23:15:43.508Z,28.20
2018-02-06T23:18:11.075Z,25.40
2018-02-06T23:20:38.636Z,14.33
2018-02-06T23:23:06.200Z,24.97
2018-02-06T23:25:33.754Z,26.83
2018-02-06T23:28:01.319Z,12.97
2018-02-06T23:30:28.894Z,28.10
2018-02-06T23:32:56.458Z,25.50
2018-02-06T23:35:24.022Z,38.67
2018-02-06T23:37:51.576Z,31.27
2018-02-06T23:40:19.127Z,11.57
2018-02-06T23:42:46.749Z,28.00
2018-02-06T23:45:14.307Z,21.63
2018-02-06T23:47:41.823Z,23.57
2018-02-06T23:50:09.423Z,25.77
2018-02-06T23:52:36.958Z,27.13
2018-02-06T23:55:04.477Z,25.97
2018-02-06T23:57:32.070Z,27.13
2018-02-06T23:59:59.611Z,30.50
